createdAt,value
2023-09-17T00:01:00.533Z,18.25
2023-09-17T00:04:02.314Z,18.28
2023-09-17T00:07:04.127Z,18.29
2023-09-17T00:10:06.601Z,18.29
2023-09-17T00:13:08.448Z,18.28
2023-09-17T00:16:11.886Z,18.25
2023-09-17T00:19:14.356Z,18.21
2023-09-17T00:22:16.292Z,18.22
2023-09-17T00:25:18.078Z,18.30
2023-09-17T00:28:19.891Z,18.32
2023-09-17T00:31:23.206Z,18.34
2023-09-17T00:34:24.941Z,18.34
2023-09-17T00:37:26.750Z,18.25
2023-09-17T00:40:29.944Z,18.19
2023-09-17T00:43:31.719Z,18.22
2023-09-17T00:46:34.985Z,18.24
2023-09-17T00:49:37.227Z,18.18
2023-09-17T00:52:39.479Z,18.14
2023-09-17T00:55:41.655Z,18.09
2023-09-17T00:58:45.260Z,18.16
2023-09-17T01:01:48.492Z,18.09
2023-09-17T01:04:53.291Z,18.12
2023-09-17T01:07:55.388Z,18.14
2023-09-17T01:10:58.934Z,18.11
2023-09-17T01:14:00.961Z,18.21
2023-09-17T01:17:04.802Z,18.18
2023-09-17T01:20:08.267Z,18.15
2023-09-17T01:23:16.899Z,18.14
2023-09-17T01:26:25.245Z,18.12
2023-09-17T01:29:32.093Z,18.20
2023-09-17T01:32:33.775Z,18.23
2023-09-17T01:35:35.475Z,18.24
2023-09-17T01:38:42.221Z,18.29
2023-09-17T01:41:45.665Z,18.30
2023-09-17T01:44:48.856Z,18.26
2023-09-17T01:47:51.914Z,18.21
2023-09-17T01:50:54.076Z,18.23
2023-09-17T01:53:56.103Z,18.24
2023-09-17T01:56:57.790Z,18.12
2023-09-17T02:00:01.235Z,18.04
2023-09-17T02:03:03.177Z,18.20
2023-09-17T02:06:04.929Z,18.26
2023-09-17T02:09:06.637Z,18.24
2023-09-17T02:12:08.320Z,18.24
2023-09-17T02:15:11.572Z,18.23
2023-09-17T02:18:13.296Z,18.23
2023-09-17T02:21:14.955Z,18.18
2023-09-17T02:24:16.630Z,18.16
2023-09-17T02:27:18.287Z,18.43
2023-09-17T02:30:21.549Z,18.45
2023-09-17T02:33:23.256Z,18.45
2023-09-17T02:36:24.999Z,18.38
2023-09-17T02:39:26.697Z,18.18
2023-09-17T02:42:28.378Z,18.34
2023-09-17T02:45:31.386Z,18.13
2023-09-17T02:48:33.467Z,18.00
2023-09-17T02:51:35.242Z,18.01
2023-09-17T02:54:36.959Z,18.04
2023-09-17T02:57:38.705Z,18.02
2023-09-17T03:00:42.040Z,18.20
2023-09-17T03:03:43.538Z,18.16
2023-09-17T03:06:45.230Z,18.21
2023-09-17T03:09:46.961Z,18.20
2023-09-17T03:12:48.680Z,18.21
2023-09-17T03:15:56.524Z,18.21
2023-09-17T03:18:58.301Z,18.19
2023-09-17T03:22:00.508Z,18.17
2023-09-17T03:25:04.441Z,18.12
2023-09-17T03:28:06.941Z,18.08
2023-09-17T03:31:10.047Z,18.06
2023-09-17T03:34:11.911Z,18.07
2023-09-17T03:37:13.598Z,18.07
2023-09-17T03:40:16.019Z,18.03
2023-09-17T03:43:17.876Z,18.05
2023-09-17T03:46:21.065Z,18.01
2023-09-17T03:49:22.900Z,17.98
2023-09-17T03:52:24.901Z,17.90
2023-09-17T03:55:26.934Z,17.89
2023-09-17T03:58:28.759Z,17.90
2023-09-17T04:01:32.660Z,17.90
2023-09-17T04:04:34.384Z,17.94
2023-09-17T04:07:36.236Z,17.98
2023-09-17T04:10:37.961Z,18.04
2023-09-17T04:13:39.766Z,17.98
2023-09-17T04:16:42.942Z,17.99
2023-09-17T04:19:44.829Z,17.96
2023-09-17T04:22:47.514Z,17.93
2023-09-17T04:25:49.280Z,17.95
2023-09-17T04:28:51.076Z,17.96
2023-09-17T04:31:54.220Z,17.93
2023-09-17T04:34:56.121Z,17.95
2023-09-17T04:37:57.939Z,17.95
2023-09-17T04:41:00.432Z,17.96
2023-09-17T04:44:02.257Z,17.99
2023-09-17T04:47:05.763Z,17.95
2023-09-17T04:50:09.470Z,18.01
2023-09-17T04:53:11.216Z,18.03
2023-09-17T04:56:12.957Z,18.05
2023-09-17T04:59:14.675Z,18.06
2023-09-17T05:02:17.876Z,18.13
2023-09-17T05:05:21.563Z,18.13
2023-09-17T05:08:25.391Z,18.18
2023-09-17T05:11:29.160Z,18.18
2023-09-17T05:14:30.875Z,18.22
2023-09-17T05:17:33.978Z,18.28
2023-09-17T05:20:35.683Z,18.32
2023-09-17T05:23:37.966Z,18.34
2023-09-17T05:26:39.733Z,18.38
2023-09-17T05:29:41.633Z,18.55
2023-09-17T05:32:44.822Z,18.60
2023-09-17T05:35:46.575Z,18.69
2023-09-17T05:38:48.724Z,18.73
2023-09-17T05:41:50.443Z,18.87
2023-09-17T05:44:52.139Z,18.98
2023-09-17T05:47:55.263Z,19.16
2023-09-17T05:50:59.811Z,19.15
2023-09-17T05:54:01.899Z,19.28
2023-09-17T05:57:03.665Z,19.27
2023-09-17T06:00:08.135Z,19.27
2023-09-17T06:03:11.367Z,19.47
2023-09-17T06:06:12.922Z,19.43
2023-09-17T06:09:14.605Z,19.49
2023-09-17T06:12:16.286Z,19.51
2023-09-17T06:15:18.138Z,19.55
2023-09-17T06:18:21.179Z,19.65
2023-09-17T06:21:22.904Z,19.72
2023-09-17T06:24:24.616Z,19.77
2023-09-17T06:27:26.314Z,19.79
2023-09-17T06:30:27.945Z,19.91
2023-09-17T06:33:31.540Z,20.04
2023-09-17T06:36:33.288Z,20.00
2023-09-17T06:39:35.850Z,20.05
2023-09-17T06:42:37.659Z,20.17
2023-09-17T06:45:39.430Z,20.17
2023-09-17T06:48:42.443Z,20.30
2023-09-17T06:51:44.079Z,20.41
2023-09-17T06:54:45.780Z,20.57
2023-09-17T06:57:47.446Z,20.71
2023-09-17T07:00:49.172Z,20.84
2023-09-17T07:03:52.420Z,20.99
2023-09-17T07:06:54.377Z,21.07
2023-09-17T07:09:56.493Z,21.24
2023-09-17T07:12:58.140Z,21.29
2023-09-17T07:15:59.797Z,21.36
2023-09-17T07:19:03.081Z,21.47
2023-09-17T07:22:04.708Z,21.58
2023-09-17T07:25:06.701Z,21.61
2023-09-17T07:28:08.691Z,21.77
2023-09-17T07:31:10.555Z,21.86
2023-09-17T07:34:13.693Z,22.00
2023-09-17T07:37:15.405Z,22.14
2023-09-17T07:40:17.209Z,22.28
2023-09-17T07:43:18.896Z,22.33
2023-09-17T07:46:20.640Z,22.44
2023-09-17T07:49:23.777Z,22.53
2023-09-17T07:52:25.492Z,22.67
2023-09-17T07:55:27.361Z,22.82
2023-09-17T07:58:29.084Z,22.95
2023-09-17T08:01:30.862Z,23.12
2023-09-17T08:04:34.035Z,23.35
2023-09-17T08:07:36.058Z,23.56
2023-09-17T08:10:38.101Z,23.70
2023-09-17T08:13:39.800Z,23.92
2023-09-17T08:16:41.803Z,24.06
2023-09-17T08:19:44.964Z,24.30
2023-09-17T08:22:46.567Z,24.47
2023-09-17T08:25:48.337Z,24.68
2023-09-17T08:28:50.198Z,24.59
2023-09-17T08:31:51.875Z,24.84
2023-09-17T08:34:55.084Z,25.00
2023-09-17T08:37:56.639Z,25.12
2023-09-17T08:40:59.531Z,25.05
2023-09-17T08:44:02.427Z,25.27
2023-09-17T08:47:04.666Z,25.16
2023-09-17T08:50:09.073Z,25.17
2023-09-17T08:53:13.779Z,25.31
2023-09-17T08:56:18.011Z,25.36
2023-09-17T08:59:26.431Z,25.61
2023-09-17T09:02:33.073Z,25.55
2023-09-17T09:05:37.065Z,25.70
2023-09-17T09:08:39.726Z,25.62
2023-09-17T09:11:41.575Z,25.68
2023-09-17T09:14:44.343Z,25.75
2023-09-17T09:17:46.139Z,25.77
2023-09-17T09:20:49.143Z,25.68
2023-09-17T09:23:51.113Z,25.66
2023-09-17T09:26:53.188Z,25.77
2023-09-17T09:29:54.901Z,25.81
2023-09-17T09:32:57.690Z,25.75
2023-09-17T09:36:01.157Z,25.83
2023-09-17T09:39:03.351Z,25.85
2023-09-17T09:42:06.372Z,25.97
2023-09-17T09:45:13.492Z,26.00
2023-09-17T09:48:15.184Z,26.08
2023-09-17T09:51:19.399Z,26.05
2023-09-17T09:54:21.074Z,26.22
2023-09-17T09:57:23.692Z,26.25
2023-09-17T10:00:25.884Z,26.16
2023-09-17T10:03:27.672Z,26.06
2023-09-17T10:06:30.829Z,26.48
2023-09-17T10:09:32.577Z,26.31
2023-09-17T10:12:34.811Z,26.12
2023-09-17T10:15:37.703Z,26.07
2023-09-17T10:18:40.800Z,26.11
2023-09-17T10:21:43.892Z,26.33
2023-09-17T10:24:46.145Z,26.19
2023-09-17T10:27:49.759Z,26.30
2023-09-17T10:30:52.308Z,26.26
2023-09-17T10:33:54.564Z,26.04
2023-09-17T10:36:59.104Z,26.10
2023-09-17T10:40:02.202Z,26.48
2023-09-17T10:43:06.299Z,26.40
2023-09-17T10:46:08.112Z,26.81
2023-09-17T10:49:11.130Z,26.68
2023-09-17T10:52:15.512Z,26.95
2023-09-17T10:55:17.822Z,27.19
2023-09-17T10:58:25.903Z,27.33
2023-09-17T11:01:30.660Z,27.29
2023-09-17T11:04:33.129Z,27.13
2023-09-17T11:07:36.821Z,27.12
2023-09-17T11:10:38.802Z,27.36
2023-09-17T11:13:40.612Z,27.11
2023-09-17T11:16:42.516Z,27.30
2023-09-17T11:19:44.420Z,27.20
2023-09-17T11:22:52.245Z,27.09
2023-09-17T11:25:56.102Z,26.84
2023-09-17T11:28:58.644Z,27.03
2023-09-17T11:32:01.969Z,27.10
2023-09-17T11:35:04.824Z,27.31
2023-09-17T11:38:08.252Z,27.03
2023-09-17T11:41:18.881Z,27.29
2023-09-17T11:44:21.763Z,27.38
2023-09-17T11:47:24.335Z,27.38
2023-09-17T11:50:27.304Z,27.61
2023-09-17T12:30:50.900Z,27.87
2023-09-17T12:33:53.339Z,28.03
2023-09-17T12:36:55.772Z,28.29
2023-09-17T12:39:57.929Z,28.31
2023-09-17T12:42:59.940Z,28.37
2023-09-17T12:46:03.179Z,28.43
2023-09-17T12:49:07.020Z,28.18
2023-09-17T12:52:09.059Z,28.03
2023-09-17T12:55:11.500Z,27.81
2023-09-17T12:58:13.935Z,27.91
2023-09-17T13:01:18.051Z,28.02
2023-09-17T13:04:20.092Z,27.86
2023-09-17T13:07:23.633Z,28.06
2023-09-17T13:10:27.477Z,28.09
2023-09-17T13:13:29.712Z,28.13
2023-09-17T13:16:33.200Z,28.09
2023-09-17T13:19:36.817Z,28.08
2023-09-17T13:22:41.727Z,28.11
2023-09-17T13:25:44.586Z,28.05
2023-09-17T13:28:52.371Z,28.17
2023-09-17T13:31:56.722Z,28.20
2023-09-17T13:34:59.809Z,28.02
2023-09-17T13:38:02.716Z,28.10
2023-09-17T13:41:05.256Z,28.00
2023-09-17T13:44:08.137Z,28.06
2023-09-17T13:47:13.111Z,28.11
2023-09-17T13:50:15.985Z,28.15
2023-09-17T13:53:19.133Z,28.18
2023-09-17T13:56:21.478Z,28.28
2023-09-17T13:59:24.217Z,28.23
2023-09-17T14:02:28.253Z,28.28
2023-09-17T14:05:30.838Z,28.21
2023-09-17T14:08:33.441Z,28.20
2023-09-17T14:11:36.347Z,28.20
2023-09-17T14:14:37.922Z,28.23
2023-09-17T14:17:41.743Z,28.18
2023-09-17T14:20:43.889Z,27.98
2023-09-17T14:23:45.864Z,27.97
2023-09-17T14:26:48.751Z,27.99
2023-09-17T14:29:51.114Z,27.92
2023-09-17T14:32:56.024Z,27.95
2023-09-17T14:35:58.351Z,27.94
2023-09-17T14:39:01.147Z,27.86
2023-09-17T14:42:04.687Z,27.79
2023-09-17T14:45:08.146Z,27.78
2023-09-17T14:48:12.751Z,27.69
2023-09-17T14:51:14.996Z,27.66
2023-09-17T14:54:17.164Z,27.77
2023-09-17T14:57:20.033Z,27.78
2023-09-17T15:00:23.286Z,27.76
2023-09-17T15:03:27.735Z,27.72
2023-09-17T15:06:29.635Z,27.60
2023-09-17T15:09:32.477Z,27.57
2023-09-17T15:12:35.239Z,27.57
2023-09-17T15:15:39.336Z,27.51
2023-09-17T15:18:43.334Z,27.47
2023-09-17T15:21:45.807Z,27.44
2023-09-17T15:24:48.015Z,27.38
2023-09-17T15:27:50.796Z,27.34
2023-09-17T15:30:53.317Z,27.28
2023-09-17T15:33:57.856Z,27.29
2023-09-17T15:37:00.648Z,27.30
2023-09-17T15:40:02.924Z,27.24
2023-09-17T15:43:05.351Z,27.20
2023-09-17T15:46:08.660Z,27.15
2023-09-17T15:49:13.240Z,27.10
2023-09-17T15:52:15.739Z,27.02
2023-09-17T15:55:19.381Z,26.96
2023-09-17T15:58:21.670Z,26.90
2023-09-17T16:01:24.205Z,26.86
2023-09-17T16:04:28.804Z,26.81
2023-09-17T16:07:31.144Z,26.71
2023-09-17T16:10:33.228Z,26.67
2023-09-17T16:13:35.617Z,26.59
2023-09-17T16:16:37.946Z,26.49
2023-09-17T16:19:53.650Z,26.52
2023-09-17T16:22:56.078Z,26.44
2023-09-17T16:25:57.833Z,26.34
2023-09-17T16:29:00.186Z,26.24
2023-09-17T16:32:02.105Z,26.13
2023-09-17T16:35:07.402Z,26.02
2023-09-17T16:38:09.248Z,25.94
2023-09-17T16:41:12.656Z,25.86
2023-09-17T16:44:15.092Z,25.73
2023-09-17T16:47:17.820Z,25.60
2023-09-17T16:50:22.309Z,25.35
2023-09-17T16:53:24.962Z,25.21
2023-09-17T16:56:27.113Z,25.15
2023-09-17T16:59:29.213Z,25.17
2023-09-17T17:02:32.466Z,25.02
2023-09-17T17:11:57.309Z,24.41
2023-09-17T17:15:01.927Z,24.35
2023-09-17T17:18:04.210Z,24.29
2023-09-17T17:21:06.625Z,24.23
2023-09-17T17:24:09.214Z,24.18
2023-09-17T17:27:13.154Z,24.23
2023-09-17T17:30:16.732Z,24.13
2023-09-17T17:33:19.760Z,23.92
2023-09-17T17:36:23.205Z,23.96
2023-09-17T17:39:27.333Z,23.87
2023-09-17T17:42:32.330Z,23.94
2023-09-17T17:45:36.912Z,23.87
2023-09-17T17:48:43.756Z,23.77
2023-09-17T17:51:47.404Z,23.68
2023-09-17T17:55:03.774Z,23.66
2023-09-17T17:58:10.740Z,23.50
2023-09-17T18:01:15.408Z,23.24
2023-09-17T18:04:41.278Z,23.15
2023-09-17T18:07:48.369Z,23.11
2023-09-17T18:10:54.749Z,23.05
2023-09-17T18:14:04.217Z,23.04
2023-09-17T18:21:26.365Z,23.16
2023-09-17T18:24:40.406Z,22.91
2023-09-17T18:28:06.439Z,22.81
2023-09-17T18:31:25.000Z,22.80
2023-09-17T18:34:46.973Z,22.73
2023-09-17T18:37:49.869Z,22.78
2023-09-17T18:40:54.164Z,22.78
2023-09-17T18:43:58.898Z,22.72
2023-09-17T18:47:06.354Z,22.76
2023-09-17T18:50:11.060Z,22.78
2023-09-17T18:53:15.488Z,22.74
2023-09-17T18:56:19.113Z,22.72
2023-09-17T18:59:22.527Z,22.64
2023-09-17T19:02:28.018Z,22.59
2023-09-17T19:05:34.766Z,22.56
2023-09-17T19:08:38.671Z,22.57
2023-09-17T19:11:41.446Z,22.64
2023-09-17T19:14:44.930Z,22.55
2023-09-17T19:17:50.065Z,22.67
2023-09-17T19:21:06.898Z,22.67
2023-09-17T19:24:09.791Z,22.72
2023-09-17T19:27:12.482Z,22.72
2023-09-17T19:30:15.888Z,22.75
2023-09-17T19:33:22.413Z,22.67
2023-09-17T19:36:25.478Z,22.69
2023-09-17T19:39:28.718Z,22.67
2023-09-17T19:42:31.246Z,22.57
2023-09-17T19:45:33.816Z,22.49
2023-09-17T19:48:45.921Z,22.54
2023-09-17T19:51:50.428Z,22.55
2023-09-17T19:54:53.819Z,22.51
2023-09-17T19:57:57.095Z,22.43
2023-09-17T20:01:00.015Z,22.50
2023-09-17T20:04:05.705Z,22.42
2023-09-17T20:07:11.594Z,22.37
2023-09-17T20:10:17.387Z,22.38
2023-09-17T20:13:19.738Z,22.21
2023-09-17T20:16:22.083Z,22.16
2023-09-17T20:19:25.774Z,22.09
2023-09-17T20:22:29.859Z,22.04
2023-09-17T20:25:32.133Z,21.88
2023-09-17T20:28:35.163Z,21.95
2023-09-17T20:31:37.050Z,21.90
2023-09-17T20:34:41.016Z,21.83
2023-09-17T20:37:43.810Z,21.92
2023-09-17T20:40:46.623Z,21.86
2023-09-17T20:43:48.366Z,21.74
2023-09-17T20:46:50.235Z,21.70
2023-09-17T20:49:54.129Z,21.74
2023-09-17T20:52:55.972Z,21.60
2023-09-17T20:55:57.670Z,21.66
2023-09-17T20:58:59.922Z,21.66
2023-09-17T21:02:01.812Z,21.75
2023-09-17T21:05:05.625Z,21.64
2023-09-17T21:08:07.342Z,21.62
2023-09-17T21:11:09.142Z,21.54
2023-09-17T21:14:10.965Z,21.51
2023-09-17T21:17:12.760Z,21.50
2023-09-17T21:20:16.268Z,21.52
2023-09-17T21:23:18.002Z,21.48
2023-09-17T21:26:19.809Z,21.46
2023-09-17T21:29:21.740Z,21.37
2023-09-17T21:32:23.744Z,21.36
2023-09-17T21:35:26.880Z,21.34
2023-09-17T21:38:28.708Z,21.30
2023-09-17T21:41:30.546Z,21.39
2023-09-17T21:44:32.257Z,21.29
2023-09-17T21:47:34.013Z,21.27
2023-09-17T21:50:37.145Z,21.23
2023-09-17T21:53:38.841Z,21.10
2023-09-17T21:56:40.557Z,21.13
2023-09-17T21:59:42.296Z,21.21
2023-09-17T22:02:44.099Z,21.23
2023-09-17T22:05:47.617Z,20.92
2023-09-17T22:08:49.369Z,20.96
2023-09-17T22:11:52.015Z,20.98
2023-09-17T22:14:53.680Z,20.95
2023-09-17T22:17:55.360Z,21.03
2023-09-17T22:21:06.634Z,20.96
2023-09-17T22:24:08.671Z,20.93
2023-09-17T22:27:10.382Z,20.93
2023-09-17T22:30:12.992Z,20.84
2023-09-17T22:33:14.708Z,20.78
2023-09-17T22:36:17.916Z,20.71
2023-09-17T22:39:19.670Z,20.69
2023-09-17T22:42:21.438Z,20.60
2023-09-17T22:45:24.470Z,20.51
2023-09-17T22:48:26.128Z,20.57
2023-09-17T22:51:29.212Z,20.53
2023-09-17T22:54:30.993Z,20.51
2023-09-17T22:57:32.739Z,20.37
2023-09-17T23:00:34.508Z,20.45
2023-09-17T23:03:36.229Z,20.37
2023-09-17T23:06:39.373Z,20.33
2023-09-17T23:09:41.060Z,20.49
2023-09-17T23:12:42.713Z,20.52
2023-09-17T23:15:44.414Z,20.49
2023-09-17T23:18:46.174Z,20.32
2023-09-17T23:21:49.317Z,20.24
2023-09-17T23:24:51.069Z,20.15
2023-09-17T23:27:52.907Z,20.13
2023-09-17T23:30:54.617Z,20.17
2023-09-17T23:33:56.323Z,20.03
2023-09-17T23:36:59.400Z,20.15
2023-09-17T23:40:01.185Z,20.02
2023-09-17T23:43:03.076Z,20.07
2023-09-17T23:46:04.832Z,20.05
2023-09-17T23:49:06.561Z,20.02
2023-09-17T23:52:09.741Z,20.08
2023-09-17T23:55:11.833Z,20.04
2023-09-17T23:58:13.546Z,19.88
